createdAt,value
2023-04-22T00:04:21.656Z,95968.94
2023-04-22T00:09:25.337Z,95969.31
2023-04-22T00:14:27.784Z,95950.72
2023-04-22T00:19:30.881Z,95952.56
2023-04-22T00:24:33.513Z,95968.38
2023-04-22T00:29:36.410Z,95938.66
2023-04-22T00:34:38.968Z,95967.34
2023-04-22T00:39:42.452Z,95954.47
2023-04-22T00:44:48.628Z,95955.75
2023-04-22T00:49:51.702Z,95949.69
2023-04-22T00:54:54.133Z,95954.00
2023-04-22T00:59:57.006Z,95967.16
2023-04-22T01:10:22.063Z,95968.31
2023-04-22T01:15:24.974Z,95973.22
2023-04-22T01:20:31.042Z,95968.94
2023-04-22T01:25:33.930Z,95956.38
2023-04-22T01:30:36.833Z,95949.69
2023-04-22T01:35:40.256Z,95942.00
2023-04-22T01:40:42.890Z,95959.69
2023-04-22T01:45:45.681Z,95960.53
2023-04-22T01:50:47.963Z,95935.34
2023-04-22T01:55:50.587Z,95945.19
2023-04-22T02:00:53.173Z,95940.25
2023-04-22T02:05:55.817Z,95942.53
2023-04-22T02:11:00.736Z,95938.66
2023-04-22T02:16:03.581Z,95912.44
2023-04-22T02:21:06.375Z,95911.88
2023-04-22T02:26:08.776Z,95930.41
2023-04-22T02:31:11.480Z,95948.06
2023-04-22T02:36:16.352Z,95921.97
2023-04-22T02:41:18.711Z,95949.59
2023-04-22T02:46:21.530Z,95921.41
2023-04-22T02:51:24.336Z,95955.84
2023-04-22T02:56:27.635Z,95961.88
2023-04-22T03:01:30.114Z,95902.13
2023-04-22T03:06:36.502Z,95937.09
2023-04-22T03:11:39.239Z,95922.94
2023-04-22T03:16:42.408Z,95953.88
2023-04-22T03:21:45.125Z,95929.91
2023-04-22T03:26:47.924Z,95950.06
2023-04-22T03:31:50.878Z,95958.91
2023-04-22T03:36:54.064Z,95970.00
2023-04-22T03:41:57.433Z,95977.28
2023-04-22T03:47:01.043Z,95953.88
2023-04-22T03:52:09.798Z,95985.97
2023-04-22T03:57:18.429Z,95948.81
2023-04-22T04:02:22.310Z,95990.66
2023-04-22T04:07:25.466Z,96023.09
2023-04-22T04:12:28.195Z,96005.81
2023-04-22T04:17:31.644Z,96033.25
2023-04-22T04:22:37.840Z,96016.38
2023-04-22T04:27:42.047Z,96012.81
2023-04-22T04:32:48.449Z,96030.47
2023-04-22T04:37:54.052Z,96010.66
2023-04-22T04:42:57.768Z,96035.88
2023-04-22T04:48:08.344Z,96025.94
2023-04-22T04:53:15.090Z,96037.13
2023-04-22T04:58:19.585Z,96030.38
2023-04-22T05:03:27.198Z,96048.41
2023-04-22T05:08:30.673Z,96028.16
2023-04-22T05:13:40.670Z,96024.84
2023-04-22T05:18:46.706Z,96008.03
2023-04-22T05:23:54.483Z,96032.56
2023-04-22T05:28:57.273Z,96024.22
2023-04-22T05:33:59.841Z,96022.41
2023-04-22T05:39:03.232Z,96026.28
2023-04-22T05:44:08.381Z,96022.66
2023-04-22T05:49:10.863Z,96012.63
2023-04-22T05:54:32.275Z,96025.84
2023-04-22T05:59:35.093Z,96025.34
2023-04-22T06:04:38.396Z,96049.63
2023-04-22T06:09:42.354Z,96038.56
2023-04-22T06:14:44.778Z,96052.59
2023-04-22T06:19:47.869Z,96048.69
2023-04-22T06:24:50.599Z,96053.75
2023-04-22T06:29:53.302Z,96064.56
2023-04-22T06:34:56.519Z,96042.00
2023-04-22T06:39:59.759Z,96035.38
2023-04-22T06:45:26.075Z,96069.19
2023-04-22T06:50:50.462Z,96054.38
2023-04-22T06:55:54.809Z,96076.19
2023-04-22T07:00:57.438Z,96065.72
2023-04-22T07:06:00.232Z,96040.69
2023-04-22T07:11:02.998Z,96069.19
2023-04-22T07:16:26.999Z,96041.78
2023-04-22T07:21:29.810Z,96073.97
2023-04-22T07:26:34.582Z,96065.06
2023-04-22T07:31:37.555Z,96073.66
2023-04-22T07:36:40.706Z,96069.53
2023-04-22T07:41:42.916Z,96068.34
2023-04-22T07:46:45.614Z,96072.16
2023-04-22T07:51:48.357Z,96050.88
2023-04-22T07:56:51.269Z,96092.53
2023-04-22T08:01:53.940Z,96083.91
2023-04-22T08:06:57.672Z,96080.72
2023-04-22T08:12:01.468Z,96082.38
2023-04-22T08:17:03.657Z,96099.69
2023-04-22T08:22:07.273Z,96104.41
2023-04-22T08:27:10.010Z,96102.75
2023-04-22T08:32:12.696Z,96096.88
2023-04-22T08:37:15.386Z,96078.66
2023-04-22T08:42:18.287Z,96086.91
2023-04-22T08:47:22.508Z,96091.59
2023-04-22T08:52:30.283Z,96098.47
2023-04-22T08:57:33.495Z,96079.41
2023-04-22T09:02:38.942Z,96067.63
2023-04-22T09:07:42.340Z,96084.22
2023-04-22T09:12:45.180Z,96094.97
2023-04-22T09:17:47.869Z,96089.94
2023-04-22T09:22:51.068Z,96078.00
2023-04-22T09:27:56.172Z,96072.09
2023-04-22T09:33:04.658Z,96078.38
2023-04-22T09:38:10.100Z,96074.47
2023-04-22T09:43:13.226Z,96056.34
2023-04-22T09:48:19.886Z,96050.50
2023-04-22T09:53:23.222Z,96077.66
2023-04-22T09:58:28.002Z,96072.19
2023-04-22T10:03:31.083Z,96058.44
2023-04-22T10:08:34.499Z,96070.47
2023-04-22T10:13:37.316Z,96058.94
2023-04-22T10:18:41.564Z,96060.28
2023-04-22T10:23:48.705Z,96057.13
2023-04-22T10:28:51.388Z,96055.03
2023-04-22T10:34:11.689Z,96044.97
2023-04-22T10:39:17.905Z,96034.31
2023-04-22T10:44:22.884Z,96042.13
2023-04-22T10:49:27.099Z,96020.16
2023-04-22T10:54:37.236Z,96036.53
2023-04-22T10:59:50.426Z,96030.53
2023-04-22T11:05:25.816Z,96040.75
2023-04-22T11:10:44.614Z,96044.16
2023-04-22T11:15:49.894Z,96055.00
2023-04-22T11:20:54.051Z,96044.72
2023-04-22T11:25:59.564Z,96041.19
2023-04-22T11:31:07.095Z,96058.41
2023-04-22T11:36:12.915Z,96050.31
2023-04-22T11:41:21.765Z,96050.84
2023-04-22T11:46:32.281Z,96055.31
2023-04-22T11:51:35.075Z,96048.63
2023-04-22T11:56:40.420Z,96054.66
2023-04-22T12:01:43.327Z,96046.50
2023-04-22T12:06:47.593Z,96046.75
2023-04-22T12:11:52.069Z,96054.31
2023-04-22T12:16:54.434Z,96049.06
2023-04-22T12:21:57.562Z,96038.22
2023-04-22T12:27:00.145Z,96017.72
2023-04-22T12:32:02.829Z,96030.38
2023-04-22T12:37:04.952Z,96029.16
2023-04-22T12:42:11.638Z,96040.16
2023-04-22T12:47:18.422Z,96051.00
2023-04-22T12:52:21.477Z,96067.63
2023-04-22T12:57:24.155Z,96051.97
2023-04-22T13:02:26.997Z,96072.56
2023-04-22T13:07:29.838Z,96066.03
2023-04-22T13:12:32.501Z,96071.66
2023-04-22T13:17:35.835Z,96039.03
2023-04-22T13:22:40.596Z,96024.06
2023-04-22T13:27:43.449Z,96054.41
2023-04-22T13:32:46.033Z,96042.69
2023-04-22T13:37:48.864Z,96046.66
2023-04-22T13:42:51.716Z,96046.94
2023-04-22T13:47:54.448Z,96043.56
2023-04-22T13:52:57.164Z,96032.22
2023-04-22T13:58:01.352Z,96050.53
2023-04-22T14:03:04.311Z,96060.94
2023-04-22T14:08:07.179Z,96074.00
2023-04-22T14:13:09.880Z,96060.28
2023-04-22T14:18:13.103Z,96053.22
2023-04-22T14:23:15.391Z,96038.16
2023-04-22T14:28:17.938Z,96088.03
2023-04-22T14:33:22.073Z,96070.06
2023-04-22T14:38:25.007Z,96079.53
2023-04-22T14:43:27.200Z,96055.59
2023-04-22T14:48:31.503Z,96079.88
2023-04-22T14:53:34.579Z,96074.94
2023-04-22T14:58:40.138Z,96083.56
2023-04-22T15:03:43.575Z,96088.16
2023-04-22T15:08:48.457Z,96047.25
2023-04-22T15:13:51.304Z,96029.63
2023-04-22T15:18:55.502Z,96059.59
2023-04-22T15:23:58.520Z,96062.72
2023-04-22T15:29:01.536Z,96074.19
2023-04-22T15:34:04.295Z,96067.63
2023-04-22T15:39:07.164Z,96067.38
2023-04-22T15:44:12.863Z,96065.84
2023-04-22T15:49:15.868Z,96037.41
2023-04-22T15:54:18.833Z,96065.69
2023-04-22T15:59:23.715Z,96055.53
2023-04-22T16:04:27.148Z,96050.19
2023-04-22T16:09:31.867Z,96065.53
2023-04-22T16:14:35.769Z,96095.78
2023-04-22T16:19:38.885Z,96088.13
2023-04-22T16:24:44.001Z,96077.47
2023-04-22T16:29:47.484Z,96112.47
2023-04-22T16:34:51.141Z,96074.09
2023-04-22T16:39:56.896Z,96113.66
2023-04-22T16:44:59.978Z,96105.63
2023-04-22T16:50:02.732Z,96134.16
2023-04-22T16:55:06.241Z,96126.66
2023-04-22T17:00:10.158Z,96143.69
2023-04-22T17:05:12.409Z,96074.72
2023-04-22T17:10:15.528Z,96123.22
2023-04-22T17:15:17.920Z,96134.03
2023-04-22T17:20:20.821Z,96112.84
2023-04-22T17:25:23.557Z,96151.72
2023-04-22T17:30:26.368Z,96158.88
2023-04-22T17:35:29.549Z,96146.31
2023-04-22T17:40:31.816Z,96159.50
2023-04-22T17:45:34.495Z,96139.59
2023-04-22T17:50:37.148Z,96183.38
2023-04-22T17:55:40.041Z,96196.56
2023-04-22T18:00:42.895Z,96177.25
2023-04-22T18:05:45.512Z,96215.81
2023-04-22T18:10:48.176Z,96193.28
2023-04-22T18:15:50.968Z,96211.84
2023-04-22T18:20:53.961Z,96189.16
2023-04-22T18:25:56.760Z,96192.19
2023-04-22T18:30:59.430Z,96218.47
2023-04-22T18:36:02.351Z,96238.63
2023-04-22T18:41:05.337Z,96237.00
2023-04-22T18:46:08.687Z,96204.78
2023-04-22T18:51:11.659Z,96252.38
2023-04-22T18:56:14.314Z,96226.28
2023-04-22T19:01:17.208Z,96223.50
2023-04-22T19:06:19.983Z,96223.53
2023-04-22T19:11:23.297Z,96275.59
2023-04-22T19:16:26.549Z,96256.25
2023-04-22T19:21:30.699Z,96253.16
2023-04-22T19:26:33.840Z,96253.22
2023-04-22T19:31:36.128Z,96245.50
2023-04-22T19:36:38.754Z,96273.88
2023-04-22T19:41:41.407Z,96257.13
2023-04-22T19:46:44.215Z,96243.19
2023-04-22T19:51:46.736Z,96261.91
2023-04-22T19:56:52.003Z,96244.69
2023-04-22T20:01:55.043Z,96248.06
2023-04-22T20:06:59.818Z,96245.00
2023-04-22T20:12:05.290Z,96261.28
2023-04-22T20:17:09.248Z,96269.34
2023-04-22T20:22:14.765Z,96297.38
2023-04-22T20:27:19.307Z,96289.19
2023-04-22T20:32:24.355Z,96224.28
2023-04-22T20:37:32.317Z,96245.59
2023-04-22T20:42:37.083Z,96234.72
2023-04-22T20:47:39.943Z,96266.25
2023-04-22T20:52:43.620Z,96297.81
2023-04-22T20:57:48.512Z,96272.97
2023-04-22T21:02:51.981Z,96292.25
2023-04-22T21:07:55.570Z,96311.13
2023-04-22T21:13:06.572Z,96280.66
2023-04-22T21:18:09.620Z,96256.88
2023-04-22T21:23:19.257Z,96244.09
2023-04-22T21:28:30.847Z,96249.94
2023-04-22T21:33:35.956Z,96255.84
2023-04-22T21:38:38.767Z,96309.56
2023-04-22T21:43:41.700Z,96251.47
2023-04-22T21:48:44.390Z,96281.91
2023-04-22T21:53:47.194Z,96295.00
2023-04-22T21:58:49.774Z,96294.91
2023-04-22T22:03:53.388Z,96270.97
2023-04-22T22:08:56.587Z,96273.31
2023-04-22T22:13:59.969Z,96293.00
2023-04-22T22:19:05.552Z,96286.22
2023-04-22T22:24:09.667Z,96310.34
2023-04-22T22:29:15.780Z,96258.25
2023-04-22T22:34:18.398Z,96222.91
2023-04-22T22:39:21.233Z,96289.66
2023-04-22T22:44:24.011Z,96246.72
2023-04-22T22:49:26.703Z,96237.28
2023-04-22T22:54:29.416Z,96294.28
2023-04-22T22:59:35.784Z,96296.72
2023-04-22T23:04:39.634Z,96255.63
2023-04-22T23:09:42.138Z,96293.19
2023-04-22T23:14:45.269Z,96276.16
2023-04-22T23:19:52.108Z,96295.31
2023-04-22T23:24:55.464Z,96262.00
2023-04-22T23:29:58.198Z,96278.44
2023-04-22T23:35:02.108Z,96267.28
2023-04-22T23:40:06.926Z,96278.38
2023-04-22T23:45:10.510Z,96295.59
2023-04-22T23:50:14.357Z,96250.75
2023-04-22T23:55:17.228Z,96257.53
